createdAt,value
2018-05-12T09:46:58.887Z,976.47
2018-05-12T09:47:47.258Z,976.48
2018-05-12T09:48:47.274Z,976.45
2018-05-12T09:54:37.480Z,976.45
2018-05-12T09:55:22.335Z,976.44
2018-05-12T09:56:22.343Z,976.41
2018-05-12T09:57:22.362Z,976.51
2018-05-12T09:58:22.368Z,976.78
2018-05-12T09:59:50.946Z,976.69
2018-05-12T10:00:22.409Z,976.50
2018-05-12T10:01:22.424Z,976.70
2018-05-12T10:02:22.447Z,976.76
2018-05-12T10:03:22.545Z,976.44
2018-05-12T10:06:08.242Z,976.42
2018-05-12T10:06:54.146Z,976.59
2018-05-12T10:07:54.166Z,976.28
2018-05-12T10:08:54.170Z,976.27
2018-05-12T10:13:29.175Z,976.28
2018-05-12T10:13:57.578Z,976.28
2018-05-12T10:47:21.915Z,976.32
2018-05-12T10:48:03.760Z,976.31
2018-05-12T10:49:03.768Z,976.29
2018-05-12T10:50:03.798Z,976.29
2018-05-12T10:57:41.810Z,976.09
2018-05-12T10:58:10.789Z,976.21
2018-05-12T10:59:10.810Z,976.18
2018-05-12T11:00:10.826Z,976.17
2018-05-12T11:04:15.539Z,976.03
2018-05-12T11:05:14.995Z,976.09
2018-05-12T11:06:31.501Z,976.07
2018-05-12T11:07:16.171Z,976.08
2018-05-12T11:08:15.056Z,976.09
2018-05-12T11:09:16.196Z,976.06
2018-05-12T11:10:18.396Z,976.01
2018-05-12T11:12:46.891Z,976.05
2018-05-12T11:13:46.854Z,976.05
2018-05-12T11:14:46.869Z,976.08
2018-05-12T11:29:57.154Z,975.85
2018-05-12T11:30:34.386Z,975.82
2018-05-12T11:31:34.140Z,975.80
2018-05-12T11:32:34.095Z,975.45
2018-05-12T11:33:34.115Z,975.49
2018-05-12T11:34:34.129Z,975.44
2018-05-12T11:35:34.150Z,975.65
2018-05-12T11:41:09.180Z,975.30
2018-05-12T11:46:44.134Z,975.64
2018-05-12T11:47:44.101Z,975.67
2018-05-12T11:48:44.117Z,975.62
2018-05-12T11:49:44.138Z,975.60
2018-05-12T11:50:44.156Z,975.31
2018-05-12T11:51:44.225Z,975.29
2018-05-12T11:52:44.183Z,975.26
2018-05-12T11:53:44.203Z,975.26
2018-05-12T11:54:44.216Z,975.26
2018-05-12T11:55:44.234Z,975.19
2018-05-12T11:57:03.460Z,975.26
2018-05-12T11:57:44.264Z,975.51
2018-05-12T11:58:44.269Z,975.47
2018-05-12T11:59:44.285Z,975.43
2018-05-12T12:00:44.307Z,975.43
2018-05-12T12:03:17.586Z,975.39
2018-05-12T12:04:15.994Z,975.32
2018-05-12T12:05:15.985Z,975.41
2018-05-12T12:06:26.671Z,975.34
2018-05-12T12:07:16.015Z,975.36
2018-05-12T12:08:16.035Z,975.37
2018-05-12T12:09:16.048Z,975.30
2018-05-12T12:10:16.059Z,975.31
2018-05-12T12:11:16.130Z,975.34
2018-05-12T12:12:16.100Z,975.32
2018-05-12T12:13:16.120Z,975.38
2018-05-12T12:14:16.137Z,975.02
2018-05-12T12:15:16.157Z,975.27
2018-05-12T12:16:27.143Z,975.26
2018-05-12T12:17:16.187Z,975.24
2018-05-12T12:18:16.201Z,975.22
2018-05-12T12:19:16.226Z,974.91
2018-05-12T12:20:16.246Z,974.89
2018-05-12T12:21:17.110Z,974.92
2018-05-12T12:22:16.285Z,974.93
2018-05-12T12:23:16.409Z,974.88
2018-05-12T12:24:16.316Z,974.83
2018-05-12T12:25:16.378Z,974.84
2018-05-12T12:26:16.348Z,974.88
2018-05-12T12:27:16.369Z,974.85
2018-05-12T12:28:16.379Z,974.86
2018-05-12T12:29:16.402Z,974.83
2018-05-12T12:30:37.485Z,974.87
2018-05-12T12:31:16.429Z,974.85
2018-05-12T12:32:16.449Z,974.93
2018-05-12T12:33:16.589Z,975.13
2018-05-12T12:34:27.885Z,975.17
2018-05-12T12:35:16.493Z,975.16
2018-05-12T12:36:16.499Z,975.07
2018-05-12T12:37:16.514Z,974.83
2018-05-12T12:38:16.532Z,974.81
2018-05-12T12:39:16.550Z,974.82
2018-05-12T12:43:34.048Z,974.83
2018-05-12T12:44:19.945Z,975.13
2018-05-12T12:45:23.037Z,975.00
2018-05-12T12:46:20.491Z,974.84
2018-05-12T12:47:21.917Z,974.84
2018-05-12T12:48:20.447Z,974.81
2018-05-12T12:49:20.970Z,974.77
2018-05-12T12:50:21.446Z,974.76
2018-05-12T12:51:20.034Z,974.74
2018-05-12T12:52:20.038Z,974.76
2018-05-12T12:53:20.065Z,974.71
2018-05-12T12:54:38.551Z,974.72
2018-05-12T12:55:20.087Z,974.70
2018-05-12T12:56:20.095Z,974.70
2018-05-12T12:57:20.111Z,974.64
2018-05-12T12:58:20.140Z,974.59
2018-05-12T12:59:20.137Z,974.60
2018-05-12T13:00:20.195Z,974.62
2018-05-12T13:01:20.163Z,974.56
2018-05-12T13:02:20.173Z,974.59
2018-05-12T13:03:20.269Z,974.56
2018-05-12T13:04:20.196Z,974.61
2018-05-12T13:05:20.253Z,974.55
2018-05-12T13:06:20.221Z,974.56
2018-05-12T13:07:20.235Z,974.55
2018-05-12T13:08:20.245Z,974.54
2018-05-12T13:09:20.255Z,974.56
2018-05-12T13:12:10.034Z,974.51
2018-05-12T13:12:51.961Z,974.48
2018-05-12T13:13:51.976Z,974.48
2018-05-12T13:14:59.523Z,974.74
2018-05-12T13:15:52.016Z,974.53
2018-05-12T13:16:52.008Z,974.50
2018-05-12T13:17:52.778Z,974.43
2018-05-12T13:18:52.032Z,974.42
2018-05-12T13:21:29.353Z,974.44
2018-05-12T13:22:23.773Z,974.59
2018-05-12T13:23:23.781Z,974.30
2018-05-12T13:24:23.794Z,974.33
2018-05-12T13:25:23.855Z,974.31
2018-05-12T13:26:23.813Z,974.33
2018-05-12T13:27:23.817Z,974.29
2018-05-12T13:28:23.835Z,974.27
2018-05-12T13:29:23.851Z,974.22
2018-05-12T13:30:23.903Z,974.25
2018-05-12T13:31:23.961Z,974.25
2018-05-12T13:32:23.937Z,974.21
2018-05-12T13:33:23.894Z,974.19
2018-05-12T13:34:23.903Z,974.16
2018-05-12T13:35:23.971Z,974.22
2018-05-12T13:36:23.924Z,974.20
2018-05-12T13:37:23.934Z,974.23
2018-05-12T13:38:23.945Z,974.22
2018-05-12T13:39:23.988Z,974.41
2018-05-12T13:40:24.029Z,974.49
2018-05-12T13:41:24.116Z,974.19
2018-05-12T13:42:23.986Z,974.15
2018-05-12T13:43:23.990Z,974.15
2018-05-12T13:44:24.050Z,974.06
2018-05-12T13:45:24.022Z,974.13
2018-05-12T13:46:24.022Z,974.12
2018-05-12T13:47:24.158Z,974.14
2018-05-12T13:48:24.047Z,974.11
2018-05-12T13:49:25.079Z,974.10
2018-05-12T13:50:24.067Z,974.09
2018-05-12T13:51:24.071Z,974.13
2018-05-12T13:52:24.094Z,974.12
2018-05-12T13:53:31.816Z,974.16
2018-05-12T13:54:24.112Z,974.10
2018-05-12T13:55:24.123Z,974.09
2018-05-12T13:56:24.129Z,974.10
2018-05-12T13:57:24.140Z,974.08
2018-05-12T13:58:29.580Z,974.07
2018-05-12T13:59:24.236Z,974.31
2018-05-12T14:00:24.163Z,974.30
2018-05-12T14:01:24.184Z,974.34
2018-05-12T14:02:24.190Z,974.22
2018-05-12T14:03:29.302Z,974.20
2018-05-12T14:04:24.215Z,974.01
2018-05-12T14:05:24.223Z,973.98
2018-05-12T14:06:24.238Z,973.98
2018-05-12T14:07:24.284Z,974.03
2018-05-12T14:08:24.252Z,973.99
2018-05-12T14:09:32.078Z,973.93
2018-05-12T14:10:24.280Z,973.89
2018-05-12T14:11:24.288Z,973.96
2018-05-12T14:12:24.303Z,974.10
2018-05-12T14:13:25.321Z,974.15
2018-05-12T14:14:24.323Z,974.24
2018-05-12T14:15:24.337Z,974.17
2018-05-12T14:16:24.346Z,974.25
2018-05-12T14:17:24.353Z,974.30
2018-05-12T14:18:24.522Z,974.26
2018-05-12T14:19:24.378Z,974.21
2018-05-12T14:20:24.391Z,974.00
2018-05-12T14:21:24.402Z,974.01
2018-05-12T14:22:24.408Z,974.04
2018-05-12T14:23:35.318Z,973.96
2018-05-12T14:24:24.438Z,974.00
2018-05-12T14:25:24.441Z,973.99
2018-05-12T14:26:24.515Z,974.17
2018-05-12T14:27:24.473Z,974.22
2018-05-12T14:28:25.325Z,974.15
2018-05-12T14:29:24.501Z,974.15
2018-05-12T14:30:24.505Z,974.15
2018-05-12T14:31:24.518Z,974.14
2018-05-12T14:32:24.533Z,974.15
2018-05-12T14:33:42.825Z,974.11
2018-05-12T14:34:24.554Z,974.04
2018-05-12T14:35:24.566Z,974.13
2018-05-12T14:36:24.583Z,973.95
2018-05-12T14:37:24.592Z,973.92
2018-05-12T14:38:25.325Z,973.91
2018-05-12T14:39:24.614Z,973.88
2018-05-12T14:40:24.636Z,973.87
2018-05-12T14:41:24.643Z,973.87
2018-05-12T14:42:24.652Z,973.89
2018-05-12T14:43:32.328Z,973.89
2018-05-12T14:44:24.676Z,974.04
2018-05-12T14:45:24.685Z,973.84
2018-05-12T14:46:24.692Z,973.83
2018-05-12T14:47:24.713Z,973.86
2018-05-12T14:48:24.761Z,973.85
2018-05-12T14:49:24.729Z,973.88
2018-05-12T14:50:24.737Z,973.88
2018-05-12T14:51:24.744Z,973.83
2018-05-12T14:52:24.765Z,973.82
2018-05-12T14:53:26.498Z,973.99
2018-05-12T14:54:24.779Z,973.98
2018-05-12T14:55:24.792Z,974.03
2018-05-12T14:56:24.799Z,973.99
2018-05-12T14:57:24.807Z,973.98
2018-05-12T14:58:24.859Z,974.06
2018-05-12T14:59:24.831Z,973.77
2018-05-12T15:00:24.845Z,973.85
2018-05-12T15:01:24.853Z,973.98
2018-05-12T15:02:25.860Z,973.92
2018-05-12T15:03:24.873Z,974.07
2018-05-12T15:04:24.880Z,973.97
2018-05-12T15:05:24.890Z,973.89
2018-05-12T15:06:25.789Z,973.86
2018-05-12T15:08:00.369Z,973.85
2018-05-12T15:08:24.949Z,973.89
2018-05-12T15:09:24.939Z,973.85
2018-05-12T15:10:24.946Z,973.88
2018-05-12T15:11:24.955Z,973.82
2018-05-12T15:12:26.838Z,973.83
2018-05-12T15:13:24.975Z,973.91
2018-05-12T15:14:24.987Z,973.87
2018-05-12T15:15:24.996Z,973.83
2018-05-12T15:16:25.011Z,973.84
2018-05-12T15:17:25.076Z,973.96
2018-05-12T15:18:25.030Z,973.82
2018-05-12T15:19:25.048Z,973.83
2018-05-12T15:20:25.049Z,973.80
2018-05-12T15:21:25.131Z,973.85
2018-05-12T15:22:25.070Z,973.83
2018-05-12T15:23:25.373Z,973.79
2018-05-12T15:24:25.089Z,973.85
2018-05-12T15:25:25.102Z,973.81
2018-05-12T15:26:25.266Z,973.77
2018-05-12T15:27:26.848Z,973.81
2018-05-12T15:28:25.131Z,973.78
2018-05-12T15:29:25.153Z,973.76
2018-05-12T15:30:25.154Z,973.73
2018-05-12T15:31:25.161Z,973.70
2018-05-12T15:32:25.171Z,973.70
2018-05-12T15:33:25.841Z,973.71
2018-05-12T15:34:25.185Z,973.76
2018-05-12T15:35:25.200Z,973.80
2018-05-12T15:36:25.208Z,973.79
2018-05-12T15:37:49.341Z,973.75
2018-05-12T15:38:25.226Z,973.76
2018-05-12T15:39:25.235Z,973.65
2018-05-12T15:40:25.251Z,973.71
2018-05-12T15:41:25.253Z,973.65
2018-05-12T15:42:25.299Z,973.74
2018-05-12T15:43:25.271Z,973.64
2018-05-12T15:44:25.273Z,973.65
2018-05-12T15:45:25.290Z,973.63
2018-05-12T15:46:25.315Z,973.62
2018-05-12T15:47:25.843Z,973.60
2018-05-12T15:48:25.648Z,973.56
2018-05-12T15:49:25.333Z,973.60
2018-05-12T15:50:25.343Z,973.57
2018-05-12T15:51:25.348Z,973.57
2018-05-12T15:52:25.571Z,973.56
2018-05-12T15:53:25.372Z,973.52
2018-05-12T15:54:25.386Z,973.52
2018-05-12T15:55:25.394Z,973.56
2018-05-12T15:56:25.410Z,973.53
2018-05-12T15:57:25.469Z,973.51
2018-05-12T15:58:25.458Z,973.46
2018-05-12T15:59:25.421Z,973.46
2018-05-12T16:00:25.442Z,973.44
2018-05-12T16:01:26.432Z,973.40
2018-05-12T16:02:47.440Z,973.42
2018-05-12T16:03:25.471Z,973.41
2018-05-12T16:04:25.480Z,973.42
2018-05-12T16:05:25.491Z,973.37
2018-05-12T16:06:25.548Z,973.38
2018-05-12T16:07:33.731Z,973.42
2018-05-12T16:08:25.521Z,973.36
2018-05-12T16:09:25.560Z,973.38
2018-05-12T16:10:25.536Z,973.32
2018-05-12T16:11:25.549Z,973.37
2018-05-12T16:12:25.601Z,973.38
2018-05-12T16:13:25.568Z,973.33
2018-05-12T16:14:25.577Z,973.25
2018-05-12T16:15:25.585Z,973.32
2018-05-12T16:16:25.595Z,973.31
2018-05-12T16:17:25.960Z,973.29
2018-05-12T16:18:25.610Z,973.30
2018-05-12T16:19:25.622Z,973.30
2018-05-12T16:20:25.644Z,973.21
2018-05-12T16:21:25.647Z,973.29
2018-05-12T16:22:43.855Z,973.28
2018-05-12T16:23:25.659Z,973.23
2018-05-12T16:24:25.666Z,973.23
2018-05-12T16:25:25.680Z,973.20
2018-05-12T16:26:25.688Z,973.15
2018-05-12T16:27:43.865Z,973.20
2018-05-12T16:28:25.708Z,973.15
2018-05-12T16:29:25.716Z,973.14
2018-05-12T16:30:25.729Z,973.16
2018-05-12T16:31:25.745Z,973.10
2018-05-12T16:32:34.296Z,973.18
2018-05-12T16:33:25.754Z,973.08
2018-05-12T16:34:26.122Z,973.13
2018-05-12T16:35:25.773Z,973.10
2018-05-12T16:36:25.782Z,973.13
2018-05-12T16:46:47.294Z,973.21
2018-05-12T16:47:35.660Z,973.20
2018-05-12T16:48:35.669Z,973.21
2018-05-12T16:49:35.678Z,973.18
2018-05-12T16:50:35.754Z,973.19
2018-05-12T16:51:38.772Z,973.19
2018-05-12T16:52:35.702Z,973.12
2018-05-12T16:53:35.726Z,973.19
2018-05-12T16:54:35.801Z,973.16
2018-05-12T16:55:35.727Z,973.22
2018-05-12T16:56:35.735Z,973.15
2018-05-12T16:57:35.792Z,973.14
2018-05-12T16:58:35.752Z,973.14
2018-05-12T16:59:35.762Z,973.17
2018-05-12T17:00:35.763Z,973.10
2018-05-12T17:01:36.183Z,973.06
2018-05-12T17:02:35.829Z,973.09
2018-05-12T17:03:35.786Z,973.10
2018-05-12T17:04:35.795Z,973.12
2018-05-12T17:05:35.798Z,973.12
2018-05-12T17:06:35.917Z,973.13
2018-05-12T17:07:35.870Z,973.11
2018-05-12T17:08:35.833Z,973.16
2018-05-12T17:09:35.836Z,973.14
2018-05-12T17:10:35.836Z,973.18
2018-05-12T17:11:35.855Z,973.14
2018-05-12T17:12:35.902Z,973.17
2018-05-12T17:13:35.854Z,973.15
2018-05-12T17:14:35.869Z,973.16
2018-05-12T17:15:35.879Z,973.11
2018-05-12T17:16:36.318Z,973.17
2018-05-12T17:17:35.895Z,973.14
2018-05-12T17:18:35.897Z,973.13
2018-05-12T17:19:35.903Z,973.13
2018-05-12T17:20:36.092Z,973.22
2018-05-12T17:21:35.953Z,973.13
2018-05-12T17:22:35.925Z,973.18
2018-05-12T17:23:35.929Z,973.15
2018-05-12T17:24:35.946Z,973.17
2018-05-12T17:25:35.945Z,973.16
2018-05-12T17:26:36.090Z,973.23
2018-05-12T17:27:35.961Z,973.23
2018-05-12T17:28:35.966Z,973.18
2018-05-12T17:29:35.962Z,973.13
2018-05-12T17:30:35.979Z,973.19
2018-05-12T17:31:36.328Z,973.19
2018-05-12T17:32:35.991Z,973.20
2018-05-12T17:33:35.996Z,973.23
2018-05-12T17:34:36.003Z,973.18
2018-05-12T17:35:36.008Z,973.16
2018-05-12T17:36:36.887Z,973.13
2018-05-12T17:37:36.020Z,973.10
2018-05-12T17:38:36.029Z,973.11
2018-05-12T17:39:36.033Z,973.05
2018-05-12T17:40:36.037Z,973.07
2018-05-12T17:41:37.785Z,973.07
2018-05-12T17:42:36.050Z,973.04
2018-05-12T17:43:36.057Z,973.03
2018-05-12T17:44:36.063Z,973.00
2018-05-12T17:45:36.066Z,973.00
2018-05-12T17:46:36.222Z,973.03
2018-05-12T17:47:36.078Z,973.04
2018-05-12T17:48:36.332Z,973.04
2018-05-12T17:49:36.090Z,973.04
2018-05-12T17:50:36.095Z,973.07
2018-05-12T17:51:36.291Z,973.09
2018-05-12T17:52:36.103Z,973.08
2018-05-12T17:53:36.112Z,973.08
2018-05-12T17:54:36.117Z,973.07
2018-05-12T17:55:36.241Z,973.07
2018-05-12T17:56:36.131Z,973.08
2018-05-12T17:57:36.133Z,973.08
2018-05-12T17:58:36.138Z,973.08
2018-05-12T17:59:36.151Z,973.07
2018-05-12T18:00:37.774Z,973.08
2018-05-12T18:01:36.162Z,973.10
2018-05-12T18:02:36.156Z,973.07
2018-05-12T18:03:36.163Z,973.09
2018-05-12T18:04:36.173Z,973.12
2018-05-12T18:05:36.210Z,973.16
2018-05-12T18:06:36.176Z,973.10
2018-05-12T18:07:36.183Z,973.13
2018-05-12T18:08:36.187Z,973.15
2018-05-12T18:09:36.187Z,973.11
2018-05-12T18:10:36.256Z,973.14
2018-05-12T18:11:36.244Z,973.13
2018-05-12T18:12:36.212Z,973.13
2018-05-12T18:13:36.213Z,973.16
2018-05-12T18:14:36.216Z,973.16
2018-05-12T18:15:36.221Z,973.17
2018-05-12T18:18:09.489Z,973.18
2018-05-12T18:19:07.842Z,973.21
2018-05-12T18:20:07.845Z,973.22
2018-05-12T18:45:44.233Z,973.33
2018-05-12T18:46:35.671Z,973.36
2018-05-12T18:47:40.016Z,973.36
2018-05-12T19:56:10.635Z,973.64
2018-05-12T19:56:55.438Z,973.64
2018-05-12T19:57:55.424Z,973.67
2018-05-12T20:15:52.555Z,973.58
2018-05-12T20:16:44.391Z,973.61
2018-05-12T20:17:44.398Z,973.59
2018-05-12T20:18:44.399Z,973.52
2018-05-12T20:19:44.402Z,973.54
2018-05-12T20:55:55.317Z,973.51
2018-05-12T20:56:53.687Z,973.49
2018-05-12T20:57:53.688Z,973.45
2018-05-12T20:58:53.687Z,973.46
2018-05-12T20:59:53.687Z,973.48
2018-05-12T22:12:59.726Z,973.24
2018-05-12T22:13:41.635Z,973.23
2018-05-12T22:14:41.632Z,973.23
2018-05-12T22:15:41.627Z,973.19
2018-05-12T22:16:41.631Z,973.16
2018-05-12T22:19:42.388Z,973.19
2018-05-12T22:20:13.615Z,973.19
2018-05-12T22:21:13.616Z,973.22
2018-05-12T22:22:13.656Z,973.20
2018-05-12T22:23:13.621Z,973.18
2018-05-12T22:24:13.620Z,973.17
2018-05-12T22:25:13.616Z,973.16
2018-05-12T22:26:13.622Z,973.13
2018-05-12T22:30:18.435Z,973.15
2018-05-12T22:31:16.865Z,973.12
2018-05-12T22:32:16.913Z,973.13
2018-05-12T22:33:16.872Z,973.09
2018-05-12T22:34:16.873Z,973.11
2018-05-12T22:35:16.867Z,973.07
2018-05-12T22:36:16.870Z,973.04
2018-05-12T22:37:16.983Z,973.08
2018-05-12T22:38:16.879Z,973.06
2018-05-12T22:39:16.875Z,973.04
2018-05-12T22:40:16.878Z,973.04
2018-05-12T22:41:16.872Z,973.00
2018-05-12T22:44:15.641Z,973.02
2018-05-12T22:44:48.604Z,972.98
2018-05-12T22:45:48.596Z,972.96
2018-05-12T22:46:48.605Z,972.94
2018-05-12T22:47:49.633Z,972.93
2018-05-12T22:48:48.609Z,972.94
2018-05-12T22:49:48.602Z,972.97
2018-05-12T22:50:48.605Z,972.91
2018-05-12T22:51:48.607Z,972.94
2018-05-12T22:52:48.609Z,972.90
2018-05-12T22:55:20.370Z,972.92
2018-05-12T22:56:20.313Z,972.92
2018-05-12T22:57:20.322Z,972.91
2018-05-12T22:59:54.539Z,972.96
2018-05-12T23:00:51.990Z,972.94
2018-05-12T23:01:51.991Z,972.94
